EKSP/SKS METAR and TAF weather

Enter ICAO airport designator
Station Type Date Time Source
EKSP METAR 2018/10/19 15:20 UTC NOAA

EKSP 191520Z 28005KT 9999 BKN042 11/06 Q1025


Station Type Date Time Source
EKSP Decoded METAR 2018/10/19 15:20 UTC NOAA

Skrydstrup, Denmark (EKSP) 55-14N 009-16E 47M
Oct 19, 2018 - 11:20 AM EDT / 2018.10.19 1520 UTC
Wind: from the W (280 degrees) at 6 MPH (5 KT):0
Visibility: greater than 7 mile(s):0
Sky conditions: mostly cloudy
Temperature: 51 F (11 C)
Dew Point: 42 F (6 C)
Relative Humidity: 71%
Pressure (altimeter): 30.27 in. Hg (1025 hPa)
ob: EKSP 191520Z 28005KT 9999 BKN042 11/06 Q1025
cycle: 15

Station Type Date Time Source
EKSP TAF 2018/10/19 15:31 UTC NOAA

TAF EKSP 191406Z 1915/2012 28005KT 9999 BKN035
BECMG 1918/1921 21005KT
TEMPO 2003/2008 7000 -RADZ BKN012
BECMG 2004/2007 30010KT


Example: see airport list